Terminal Aerodrome Forecast
Issued by NWS

Home | Current Version | Previous Version | Text Only | Print | Product List | Glossary On
Versions: 1 2 3 4 5 6 7 8 9 10 11 12 13 14 15 16 17 18 19
000
FTUS43 KGRB 291100
TAFAUW
TAF
KAUW 291132Z 2912/3012 32005KT P6SM BKN100 OVC250
     FM291700 32007KT P6SM SCT020 BKN100
     FM292300 33003KT P6SM SKC=

USA.gov is the U.S. government's official web portal to all federal, state and local government web resources and services.